Time;durP1;ratioP1;P1;durP2;ratioP2;P2;SDS_P1;SDS_P2;PMS_P1;PMS_P2;Temp;Humidity;BMP_temperature;BMP_pressure;BME280_temperature;BME280_humidity;BME280_pressure;Samples;Min_cycle;Max_cycle;Signal;HPM_P1;HPM_P2
2023/06/26 00:01:32;;;;;;;0.80;0.70;;;24.70;68.00;;;;;;5004924;28;20111;-78
2023/06/26 00:03:58;;;;;;;1.10;0.50;;;24.60;67.90;;;;;;5000330;28;20045;-78
2023/06/26 00:06:25;;;;;;;0.93;0.40;;;24.60;67.80;;;;;;5021393;28;20096;-78
2023/06/26 00:08:54;;;;;;;1.15;0.70;;;24.60;67.80;;;;;;5000400;28;20046;-78
2023/06/26 00:11:20;;;;;;;1.75;0.55;;;24.60;67.80;;;;;;5004108;28;20049;-78
2023/06/26 00:13:46;;;;;;;0.50;0.40;;;24.60;67.80;;;;;;4999571;28;20054;-77
2023/06/26 00:16:11;;;;;;;0.57;0.50;;;24.60;67.90;;;;;;5005416;28;20046;-78
2023/06/26 00:18:37;;;;;;;1.08;0.60;;;24.60;67.90;;;;;;5002660;28;20053;-79
2023/06/26 00:21:04;;;;;;;1.15;0.68;;;24.60;67.80;;;;;;5002743;28;20093;-78
2023/06/26 00:23:30;;;;;;;1.38;0.73;;;24.60;67.90;;;;;;5004589;28;20065;-79
2023/06/26 00:25:56;;;;;;;0.80;0.40;;;24.60;67.90;;;;;;4987143;28;20059;-78
2023/06/26 00:28:22;;;;;;;0.73;0.60;;;24.60;68.00;;;;;;5004373;28;20500;-79
2023/06/26 00:30:47;;;;;;;0.73;0.57;;;24.60;68.00;;;;;;4998363;28;20042;-78
2023/06/26 00:33:13;;;;;;;1.02;0.93;;;24.60;67.90;;;;;;4986815;28;20038;-78
2023/06/26 00:35:38;;;;;;;0.77;0.43;;;24.60;67.90;;;;;;5002000;28;20134;-79
2023/06/26 00:38:04;;;;;;;0.60;0.50;;;24.60;67.90;;;;;;4987479;28;20447;-78
2023/06/26 00:40:29;;;;;;;0.55;0.40;;;24.60;67.90;;;;;;5003409;28;20045;-78
2023/06/26 00:42:55;;;;;;;0.50;0.50;;;24.60;67.90;;;;;;4987372;28;20038;-78
2023/06/26 00:45:20;;;;;;;0.70;0.60;;;24.60;67.90;;;;;;4999340;28;20507;-78
2023/06/26 00:47:46;;;;;;;1.15;0.57;;;24.60;68.00;;;;;;5002063;28;20137;-78
2023/06/26 00:50:12;;;;;;;0.50;0.40;;;24.60;68.00;;;;;;4985579;28;20042;-78
2023/06/26 00:52:37;;;;;;;0.57;0.50;;;24.60;68.00;;;;;;5000759;28;20037;-78
2023/06/26 00:55:04;;;;;;;0.50;0.47;;;24.60;67.90;;;;;;5014408;28;20060;-78
2023/06/26 00:57:30;;;;;;;1.60;0.82;;;24.60;68.00;;;;;;5018361;28;20124;-78
2023/06/26 00:59:56;;;;;;;0.70;0.60;;;24.60;68.00;;;;;;4997295;28;20045;-78
2023/06/26 01:02:21;;;;;;;0.93;0.50;;;24.50;68.10;;;;;;4986732;28;20431;-78
2023/06/26 01:04:50;;;;;;;1.67;0.60;;;24.50;68.10;;;;;;4974166;28;20096;-78
2023/06/26 01:07:16;;;;;;;0.70;0.50;;;24.50;68.30;;;;;;4999456;28;20104;-79
2023/06/26 01:09:41;;;;;;;0.50;0.50;;;24.60;68.40;;;;;;5002728;28;20049;-78
2023/06/26 01:12:07;;;;;;;0.95;0.57;;;24.50;68.40;;;;;;5001265;28;20041;-78
2023/06/26 01:14:35;;;;;;;1.33;0.63;;;24.60;68.40;;;;;;5001504;28;20046;-78
2023/06/26 01:17:00;;;;;;;0.70;0.50;;;24.60;68.40;;;;;;4985284;28;20061;-78
2023/06/26 01:19:28;;;;;;;0.50;0.50;;;24.50;68.30;;;;;;5002599;28;20041;-78
2023/06/26 01:22:19;;;;;;;0.45;0.43;;;24.60;69.20;;;;;;4999133;28;20086;-78
2023/06/26 01:25:07;;;;;;;1.15;0.40;;;24.60;68.40;;;;;;4988407;28;20463;-78
2023/06/26 01:27:33;;;;;;;0.50;0.40;;;24.50;68.40;;;;;;5014983;28;20049;-78
2023/06/26 01:30:00;;;;;;;0.75;0.50;;;24.60;68.50;;;;;;5002962;28;20407;-78
2023/06/26 01:32:25;;;;;;;0.73;0.50;;;24.60;68.30;;;;;;4999380;28;20049;-78
2023/06/26 01:34:51;;;;;;;0.50;0.50;;;24.60;68.40;;;;;;5003572;28;20041;-78
2023/06/26 01:37:16;;;;;;;0.50;0.50;;;24.60;68.40;;;;;;5000828;28;20064;-78
2023/06/26 01:39:42;;;;;;;0.65;0.50;;;24.50;68.30;;;;;;5002373;28;20046;-78
2023/06/26 01:42:07;;;;;;;1.67;0.40;;;24.50;68.40;;;;;;4999549;28;20806;-78
2023/06/26 01:44:36;;;;;;;0.50;0.40;;;24.50;68.40;;;;;;5006415;28;20052;-78
2023/06/26 01:47:02;;;;;;;0.30;0.30;;;24.50;68.30;;;;;;4990690;28;20056;-78
2023/06/26 01:49:33;;;;;;;0.40;0.30;;;24.50;68.40;;;;;;5005321;28;20050;-78
2023/06/26 01:52:28;;;;;;;0.60;0.45;;;24.50;68.40;;;;;;5004118;28;20092;-78
2023/06/26 01:55:02;;;;;;;0.50;0.45;;;24.50;68.50;;;;;;4996091;28;20068;-78
2023/06/26 01:57:28;;;;;;;1.00;0.52;;;24.50;68.50;;;;;;5020868;28;20117;-78
2023/06/26 01:59:54;;;;;;;0.40;0.40;;;24.50;69.30;;;;;;4999957;28;20081;-78
2023/06/26 02:02:20;;;;;;;0.60;0.60;;;24.50;68.80;;;;;;5019899;28;20043;-78
2023/06/26 02:04:47;;;;;;;0.73;0.45;;;24.50;68.50;;;;;;5005170;28;20045;-78
2023/06/26 02:07:13;;;;;;;0.50;0.50;;;24.50;68.40;;;;;;5003631;28;21041;-78
2023/06/26 02:09:38;;;;;;;0.35;0.35;;;24.50;68.40;;;;;;5004999;28;20512;-78
2023/06/26 02:12:04;;;;;;;0.40;0.40;;;24.50;68.40;;;;;;5003179;28;20085;-78
2023/06/26 02:14:30;;;;;;;0.30;0.25;;;24.50;68.40;;;;;;5002493;28;20084;-79
2023/06/26 02:16:56;;;;;;;0.43;0.30;;;24.50;68.50;;;;;;5020642;28;20030;-78
2023/06/26 02:19:21;;;;;;;0.75;0.40;;;24.50;68.50;;;;;;5003674;28;20050;-78
2023/06/26 02:21:50;;;;;;;0.47;0.47;;;24.50;68.50;;;;;;5002849;28;20532;-78
2023/06/26 02:24:16;;;;;;;0.32;0.32;;;24.50;69.20;;;;;;4999034;28;20061;-78
2023/06/26 02:26:41;;;;;;;0.57;0.50;;;24.50;68.40;;;;;;5005486;28;20057;-78
2023/06/26 02:29:07;;;;;;;0.95;0.50;;;24.50;68.40;;;;;;5005549;28;20146;-78
2023/06/26 02:31:32;;;;;;;0.32;0.30;;;24.50;68.40;;;;;;5004773;28;20100;-78
2023/06/26 02:33:58;;;;;;;0.50;0.40;;;24.40;68.70;;;;;;5019312;28;20128;-78
2023/06/26 02:36:23;;;;;;;1.45;0.60;;;24.50;68.70;;;;;;5004136;28;20058;-78
2023/06/26 02:38:49;;;;;;;0.30;0.30;;;24.50;68.50;;;;;;5004591;28;20053;-78
2023/06/26 02:41:14;;;;;;;0.82;0.40;;;24.50;69.10;;;;;;5004066;28;20050;-78
2023/06/26 02:43:40;;;;;;;0.73;0.47;;;24.50;68.70;;;;;;4989120;28;20479;-78
2023/06/26 02:46:05;;;;;;;0.50;0.40;;;24.50;68.60;;;;;;5002256;28;20050;-78
2023/06/26 02:48:31;;;;;;;0.43;0.20;;;24.40;69.20;;;;;;5019356;28;20053;-78
2023/06/26 02:50:57;;;;;;;0.57;0.40;;;24.40;68.60;;;;;;5003928;28;20125;-78
2023/06/26 02:53:22;;;;;;;0.40;0.40;;;24.50;68.60;;;;;;4988744;28;20403;-78
2023/06/26 02:55:48;;;;;;;0.40;0.20;;;24.50;68.70;;;;;;4989101;28;20097;-78
2023/06/26 02:58:13;;;;;;;0.55;0.40;;;24.40;68.70;;;;;;5003448;28;20113;-78
2023/06/26 03:00:41;;;;;;;0.30;0.30;;;24.40;68.70;;;;;;4989980;28;20100;-78
2023/06/26 03:03:07;;;;;;;0.30;0.30;;;24.40;69.70;;;;;;5021152;28;20053;-78
2023/06/26 03:05:33;;;;;;;0.25;0.20;;;24.40;69.60;;;;;;5002521;28;20050;-78
2023/06/26 03:07:58;;;;;;;0.30;0.30;;;24.40;69.40;;;;;;5001459;28;20510;-78
2023/06/26 03:10:24;;;;;;;0.32;0.30;;;24.40;69.80;;;;;;5017173;28;20077;-78
2023/06/26 03:12:49;;;;;;;0.40;0.30;;;24.40;69.40;;;;;;5003140;28;20046;-78
2023/06/26 03:15:15;;;;;;;1.85;0.30;;;24.40;69.30;;;;;;5001442;28;20081;-78
2023/06/26 03:17:40;;;;;;;0.35;0.32;;;24.40;69.20;;;;;;5003856;28;20057;-78
2023/06/26 03:20:07;;;;;;;0.60;0.50;;;24.40;69.20;;;;;;5003322;28;20050;-79
2023/06/26 03:22:33;;;;;;;0.25;0.25;;;24.40;69.50;;;;;;5001367;28;20041;-78
2023/06/26 03:24:59;;;;;;;0.40;0.30;;;24.40;69.40;;;;;;5014325;28;20076;-78
2023/06/26 03:27:25;;;;;;;0.40;0.38;;;24.40;69.20;;;;;;5003765;28;20065;-78
2023/06/26 03:29:52;;;;;;;0.40;0.30;;;24.40;69.50;;;;;;5004183;28;20068;-79
2023/06/26 03:32:17;;;;;;;0.28;0.28;;;24.40;69.50;;;;;;5001486;28;20038;-78
2023/06/26 03:34:43;;;;;;;0.30;0.30;;;24.40;69.10;;;;;;5001165;28;20508;-78
2023/06/26 03:37:08;;;;;;;0.47;0.47;;;24.40;69.60;;;;;;5017045;28;20514;-78
2023/06/26 03:39:34;;;;;;;0.50;0.50;;;24.40;69.20;;;;;;5005100;28;20050;-78
2023/06/26 03:42:00;;;;;;;0.30;0.30;;;24.40;69.40;;;;;;5001670;28;20042;-78
2023/06/26 03:44:27;;;;;;;0.63;0.40;;;24.40;69.30;;;;;;5002397;28;20048;-78
2023/06/26 03:46:52;;;;;;;0.50;0.40;;;24.30;69.50;;;;;;5004112;28;20703;-78
2023/06/26 03:49:18;;;;;;;0.35;0.28;;;24.40;69.40;;;;;;5002056;28;20121;-78
2023/06/26 03:51:44;;;;;;;0.38;0.30;;;24.40;69.40;;;;;;5003917;28;20451;-78
2023/06/26 03:54:10;;;;;;;0.52;0.43;;;24.40;69.70;;;;;;5017360;28;20041;-79
2023/06/26 03:56:35;;;;;;;0.35;0.20;;;24.40;69.70;;;;;;5002693;28;20038;-78
2023/06/26 03:59:01;;;;;;;0.77;0.40;;;24.40;69.70;;;;;;5000536;28;20626;-78
2023/06/26 04:01:27;;;;;;;0.40;0.40;;;24.40;70.20;;;;;;5002525;28;20085;-78
2023/06/26 04:03:53;;;;;;;0.20;0.20;;;24.40;69.50;;;;;;5001095;28;20054;-78
2023/06/26 04:06:18;;;;;;;0.20;0.20;;;24.40;69.30;;;;;;5003025;28;20053;-78
2023/06/26 04:08:44;;;;;;;0.22;0.22;;;24.40;68.90;;;;;;5015795;28;20046;-78
2023/06/26 04:11:10;;;;;;;0.60;0.30;;;24.40;68.90;;;;;;5002899;28;20117;-78
2023/06/26 04:13:35;;;;;;;0.40;0.30;;;24.40;69.20;;;;;;4999239;28;20034;-78
2023/06/26 04:16:01;;;;;;;0.30;0.20;;;24.40;69.00;;;;;;5013989;28;20046;-78
2023/06/26 04:18:27;;;;;;;0.20;0.20;;;24.40;69.00;;;;;;5003483;28;20070;-78
2023/06/26 04:21:08;;;;;;;0.40;0.30;;;24.30;69.00;;;;;;4967235;28;20054;-78
2023/06/26 04:23:34;;;;;;;0.38;0.35;;;24.40;69.10;;;;;;5001254;28;20128;-78
2023/06/26 04:25:59;;;;;;;0.38;0.38;;;24.30;69.10;;;;;;5004323;28;20128;-79
2023/06/26 04:28:25;;;;;;;0.30;0.30;;;24.30;69.30;;;;;;4986021;28;20038;-79
2023/06/26 04:30:51;;;;;;;0.20;0.20;;;24.30;69.00;;;;;;4985453;28;20050;-78
2023/06/26 04:33:16;;;;;;;0.40;0.40;;;24.30;69.00;;;;;;5018694;28;20462;-78
2023/06/26 04:35:44;;;;;;;0.20;0.20;;;24.30;69.10;;;;;;5000465;28;20041;-78
2023/06/26 04:38:10;;;;;;;0.30;0.30;;;24.30;69.10;;;;;;4995492;28;20470;-78
2023/06/26 04:40:35;;;;;;;1.30;0.52;;;24.30;69.10;;;;;;4999893;28;20046;-82
2023/06/26 04:43:01;;;;;;;2.58;1.10;;;24.20;65.10;;;;;;4998662;28;20038;-78
2023/06/26 04:45:26;;;;;;;4.97;1.35;;;23.30;60.50;;;;;;5003901;28;20476;-79
2023/06/26 04:47:52;;;;;;;3.60;1.75;;;22.10;62.30;;;;;;4996028;28;20038;-80
2023/06/26 04:50:18;;;;;;;3.13;1.83;;;21.40;64.60;;;;;;4997014;28;20042;-78
2023/06/26 04:52:44;;;;;;;4.20;1.20;;;21.00;65.70;;;;;;5001198;28;20042;-78
2023/06/26 04:55:09;;;;;;;2.58;1.35;;;20.70;66.50;;;;;;4999261;28;20108;-77
2023/06/26 04:57:35;;;;;;;4.18;1.20;;;20.50;67.30;;;;;;5017054;28;20042;-78
2023/06/26 05:00:02;;;;;;;5.45;1.30;;;20.40;69.60;;;;;;4998298;28;20713;-76
2023/06/26 05:02:27;;;;;;;5.88;2.03;;;20.20;68.80;;;;;;5012991;28;20053;-75
2023/06/26 05:04:53;;;;;;;5.47;2.00;;;20.20;68.40;;;;;;5003032;28;20064;-77
2023/06/26 05:07:18;;;;;;;4.20;1.50;;;20.10;68.70;;;;;;5002110;28;20052;-78
2023/06/26 05:09:44;;;;;;;4.72;1.50;;;20.10;68.90;;;;;;5003241;28;20408;-78
2023/06/26 05:12:10;;;;;;;3.88;1.30;;;20.20;68.30;;;;;;5003742;28;20045;-79
2023/06/26 05:14:35;;;;;;;3.03;1.02;;;20.00;68.90;;;;;;4999898;28;20041;-78
2023/06/26 05:17:01;;;;;;;3.38;1.40;;;20.00;69.00;;;;;;5002350;28;20073;-79
2023/06/26 05:19:26;;;;;;;3.13;1.33;;;20.00;69.30;;;;;;4989942;28;20315;-79
2023/06/26 05:21:52;;;;;;;4.82;1.45;;;19.90;69.60;;;;;;5006545;28;20041;-78
2023/06/26 05:24:18;;;;;;;4.25;1.73;;;19.70;70.00;;;;;;5019940;28;20100;-78
2023/06/26 05:26:43;;;;;;;3.63;1.30;;;19.70;70.30;;;;;;5020108;28;20057;-81
2023/06/26 05:29:09;;;;;;;4.35;1.58;;;19.50;70.50;;;;;;5002086;28;20048;-78
2023/06/26 05:31:35;;;;;;;3.08;1.52;;;19.50;70.80;;;;;;4996179;28;20034;-78
2023/06/26 05:34:02;;;;;;;3.58;1.60;;;19.30;71.20;;;;;;5019553;28;20045;-79
2023/06/26 05:36:28;;;;;;;5.47;1.67;;;19.40;71.60;;;;;;4995575;28;20049;-77
2023/06/26 05:38:55;;;;;;;4.80;2.03;;;19.40;71.40;;;;;;5006437;28;20510;-77
2023/06/26 05:41:21;;;;;;;2.88;1.50;;;19.40;71.50;;;;;;5004362;28;20042;-77
2023/06/26 05:43:47;;;;;;;4.43;1.33;;;19.30;71.50;;;;;;4990839;28;20573;-77
2023/06/26 05:46:12;;;;;;;5.65;1.98;;;19.40;71.50;;;;;;5004685;28;20100;-78
2023/06/26 05:48:39;;;;;;;2.72;1.73;;;19.30;71.90;;;;;;5004939;28;20411;-77
2023/06/26 05:51:05;;;;;;;5.38;1.58;;;19.30;72.00;;;;;;5002712;28;20038;-77
2023/06/26 05:53:31;;;;;;;2.55;1.23;;;19.40;71.90;;;;;;5005243;28;20111;-76
2023/06/26 05:55:56;;;;;;;3.40;1.50;;;19.50;71.30;;;;;;5003294;28;20066;-77
2023/06/26 05:58:23;;;;;;;3.85;1.60;;;19.40;71.90;;;;;;5001086;28;20484;-80
2023/06/26 06:00:49;;;;;;;3.30;1.42;;;19.40;71.70;;;;;;5005176;28;20041;-79
2023/06/26 06:03:15;;;;;;;3.35;1.25;;;19.60;70.80;;;;;;5005090;28;20038;-79
2023/06/26 06:05:40;;;;;;;3.83;1.30;;;19.60;70.80;;;;;;5004014;28;20411;-81
2023/06/26 06:08:06;;;;;;;7.18;1.33;;;19.50;71.20;;;;;;4996259;28;20136;-78
2023/06/26 06:10:34;;;;;;;6.13;1.40;;;19.50;71.40;;;;;;4968623;28;20052;-78
2023/06/26 06:12:59;;;;;;;4.43;1.63;;;19.60;71.20;;;;;;5000666;28;20058;-78
2023/06/26 06:15:25;;;;;;;2.00;1.20;;;19.60;71.10;;;;;;4983592;28;20049;-79
2023/06/26 06:17:54;;;;;;;4.30;1.20;;;19.90;70.40;;;;;;5006841;28;20037;-78
2023/06/26 06:20:19;;;;;;;3.90;1.20;;;20.20;69.10;;;;;;4994481;28;20037;-76
2023/06/26 06:22:45;;;;;;;2.20;1.10;;;20.40;68.50;;;;;;5003590;28;20046;-78
2023/06/26 06:25:11;;;;;;;3.17;1.10;;;20.50;67.70;;;;;;5004076;28;20046;-77
2023/06/26 06:27:36;;;;;;;7.10;0.93;;;20.60;68.00;;;;;;5001132;28;20129;-77
2023/06/26 06:30:02;;;;;;;1.95;1.00;;;20.70;67.60;;;;;;5002590;28;20042;-78
2023/06/26 06:32:28;;;;;;;2.83;1.20;;;20.90;67.00;;;;;;5003669;28;20033;-77
2023/06/26 06:34:53;;;;;;;3.83;1.20;;;21.00;66.60;;;;;;5003617;28;20108;-77
2023/06/26 06:37:19;;;;;;;4.88;1.50;;;21.10;66.40;;;;;;5003631;28;20507;-77
2023/06/26 06:39:45;;;;;;;4.28;1.30;;;21.20;66.00;;;;;;5004740;28;21551;-77
2023/06/26 06:42:10;;;;;;;3.28;0.65;;;21.30;65.90;;;;;;5004260;28;20496;-77
2023/06/26 06:44:36;;;;;;;1.95;1.00;;;21.30;65.70;;;;;;5003285;28;20061;-77
2023/06/26 06:47:01;;;;;;;2.88;0.90;;;21.40;65.60;;;;;;5003838;28;20491;-78
2023/06/26 06:49:27;;;;;;;2.30;0.90;;;21.50;65.50;;;;;;5002045;28;20303;-77
2023/06/26 06:51:53;;;;;;;2.17;1.45;;;21.50;65.40;;;;;;5005120;28;20113;-77
2023/06/26 06:54:19;;;;;;;3.83;0.88;;;21.60;65.20;;;;;;5006516;28;20064;-77
2023/06/26 06:56:45;;;;;;;4.32;1.52;;;21.60;65.20;;;;;;5003501;28;20038;-77
2023/06/26 06:59:10;;;;;;;1.73;0.95;;;21.70;65.20;;;;;;5001839;28;20054;-77
2023/06/26 07:01:36;;;;;;;4.60;1.10;;;21.70;65.10;;;;;;5003180;28;20046;-78
2023/06/26 07:04:03;;;;;;;1.48;0.82;;;21.70;65.00;;;;;;5002203;28;20069;-78
2023/06/26 07:06:29;;;;;;;1.25;0.70;;;21.80;65.00;;;;;;5006319;28;20042;-78
2023/06/26 07:08:55;;;;;;;1.48;1.00;;;21.80;65.70;;;;;;5001094;28;20108;-78
2023/06/26 07:11:20;;;;;;;3.70;1.20;;;21.90;65.00;;;;;;5004262;28;20046;-78
2023/06/26 07:13:46;;;;;;;1.25;0.85;;;21.90;65.00;;;;;;5003420;28;20112;-77
2023/06/26 07:16:12;;;;;;;2.20;0.98;;;21.90;64.90;;;;;;5000734;28;20383;-77
2023/06/26 07:18:38;;;;;;;2.45;1.10;;;21.90;65.00;;;;;;5002246;28;20136;-78
2023/06/26 07:21:04;;;;;;;1.83;0.90;;;21.90;65.00;;;;;;4999710;28;20043;-78
2023/06/26 07:23:30;;;;;;;1.40;0.75;;;22.00;65.10;;;;;;5001296;28;20045;-78
2023/06/26 07:25:55;;;;;;;1.48;0.90;;;22.00;65.00;;;;;;5003982;28;20557;-79
2023/06/26 07:28:21;;;;;;;2.55;1.13;;;22.10;65.00;;;;;;5001977;28;20049;-79
2023/06/26 07:30:46;;;;;;;1.50;1.00;;;22.10;65.00;;;;;;5003333;28;20065;-79
2023/06/26 07:33:12;;;;;;;1.83;0.85;;;22.10;65.00;;;;;;5004339;28;20138;-79
2023/06/26 07:35:38;;;;;;;1.92;0.77;;;22.20;65.00;;;;;;4998471;28;20455;-79
2023/06/26 07:38:03;;;;;;;1.02;0.68;;;22.20;65.00;;;;;;4654707;28;9999668;-78
2023/06/26 07:40:29;;;;;;;0.75;0.75;;;22.20;65.00;;;;;;4650267;28;10000685;-79
2023/06/26 07:42:55;;;;;;;1.20;0.80;;;22.30;65.00;;;;;;4996372;28;20061;-78
2023/06/26 07:45:20;;;;;;;1.25;1.10;;;22.30;64.80;;;;;;4999701;28;20034;-77
2023/06/26 07:47:46;;;;;;;3.10;0.80;;;22.30;64.80;;;;;;4997795;28;20574;-78
2023/06/26 07:50:11;;;;;;;2.55;0.90;;;22.30;65.00;;;;;;4995891;28;20044;-78
2023/06/26 07:52:37;;;;;;;1.05;0.65;;;22.30;65.00;;;;;;4996727;28;20057;-78
2023/06/26 07:55:03;;;;;;;1.27;0.95;;;22.40;64.90;;;;;;4997686;28;20026;-78
2023/06/26 07:57:29;;;;;;;2.00;1.13;;;22.40;64.90;;;;;;5002081;28;20034;-78
2023/06/26 07:59:55;;;;;;;1.98;0.98;;;22.40;65.00;;;;;;4997607;28;20077;-78
2023/06/26 08:02:21;;;;;;;0.80;0.50;;;22.40;65.30;;;;;;4995802;28;20041;-77
2023/06/26 08:04:47;;;;;;;1.40;0.98;;;22.50;65.10;;;;;;5000520;28;20416;-78
2023/06/26 08:07:13;;;;;;;1.20;0.90;;;22.50;65.40;;;;;;5001761;28;20112;-79
2023/06/26 08:09:39;;;;;;;0.70;0.50;;;22.50;65.50;;;;;;5002295;28;20041;-78
2023/06/26 08:12:05;;;;;;;1.30;0.70;;;22.50;65.40;;;;;;5004042;28;20034;-77
2023/06/26 08:14:31;;;;;;;0.80;0.70;;;22.50;65.30;;;;;;4997493;28;20499;-78
2023/06/26 08:16:57;;;;;;;1.15;0.65;;;22.60;65.30;;;;;;4998949;28;20097;-77
2023/06/26 08:19:22;;;;;;;2.30;1.38;;;22.60;65.40;;;;;;4999858;28;20072;-78
2023/06/26 08:21:48;;;;;;;0.70;0.60;;;22.60;65.30;;;;;;5017242;28;21228;-78
2023/06/26 08:24:16;;;;;;;0.98;0.80;;;22.70;65.30;;;;;;5014279;28;20037;-80
2023/06/26 08:26:42;;;;;;;0.63;0.63;;;22.70;65.30;;;;;;4986572;28;20515;-79
2023/06/26 08:29:08;;;;;;;1.50;1.00;;;22.70;65.30;;;;;;5002425;28;20054;-79
2023/06/26 08:31:34;;;;;;;0.80;0.80;;;22.70;65.50;;;;;;4985135;28;20534;-79
2023/06/26 08:34:01;;;;;;;1.13;0.70;;;22.80;65.30;;;;;;5002253;28;20140;-78
2023/06/26 08:36:26;;;;;;;1.10;0.60;;;22.80;65.10;;;;;;4986108;28;20050;-79
2023/06/26 08:38:52;;;;;;;0.80;0.63;;;22.80;65.10;;;;;;4969844;28;20049;-79
2023/06/26 08:41:18;;;;;;;0.80;0.73;;;22.80;65.20;;;;;;4987128;28;20474;-79
2023/06/26 08:43:43;;;;;;;3.72;1.02;;;22.90;65.20;;;;;;4998742;28;20483;-79
2023/06/26 08:46:09;;;;;;;0.85;0.60;;;22.90;65.40;;;;;;5000702;28;20437;-79
2023/06/26 08:48:36;;;;;;;2.10;0.60;;;22.90;65.50;;;;;;5002682;28;20155;-79
2023/06/26 08:51:05;;;;;;;0.85;0.65;;;22.90;65.50;;;;;;5001060;28;20522;-79
2023/06/26 08:53:57;;;;;;;1.17;0.60;;;22.90;65.30;;;;;;5001604;28;20427;-80
2023/06/26 08:56:23;;;;;;;0.98;0.55;;;22.90;65.30;;;;;;4997244;28;20034;-79
2023/06/26 08:58:48;;;;;;;1.58;0.63;;;23.00;65.60;;;;;;5015488;28;20057;-79
2023/06/26 09:01:14;;;;;;;1.23;1.00;;;22.90;65.50;;;;;;5003135;28;20030;-79
2023/06/26 09:03:41;;;;;;;0.82;0.55;;;22.90;65.40;;;;;;4999793;28;20837;-79
2023/06/26 09:06:07;;;;;;;0.63;0.50;;;23.00;65.50;;;;;;5016587;28;20050;-79
2023/06/26 09:08:32;;;;;;;1.42;0.88;;;23.00;65.50;;;;;;5003642;28;20053;-80
2023/06/26 09:10:58;;;;;;;0.60;0.57;;;23.00;65.50;;;;;;5000768;28;20396;-79
2023/06/26 09:13:23;;;;;;;0.85;0.60;;;23.00;65.70;;;;;;4999144;28;20077;-80
2023/06/26 09:15:49;;;;;;;1.25;0.80;;;23.00;65.50;;;;;;4998706;28;20284;-80
2023/06/26 09:18:18;;;;;;;1.15;0.70;;;23.00;65.40;;;;;;5017991;28;20499;-79
2023/06/26 09:20:43;;;;;;;0.45;0.40;;;23.10;65.30;;;;;;5001599;28;20504;-79
2023/06/26 09:23:09;;;;;;;0.95;0.63;;;23.10;65.40;;;;;;5001597;28;20056;-79
2023/06/26 09:25:38;;;;;;;0.38;0.30;;;23.10;65.40;;;;;;5002977;28;20596;-79
2023/06/26 09:28:03;;;;;;;0.82;0.55;;;23.10;65.40;;;;;;5016090;28;20058;-79
2023/06/26 09:30:31;;;;;;;0.70;0.45;;;23.10;65.20;;;;;;5017060;28;20050;-79
2023/06/26 09:32:57;;;;;;;0.68;0.65;;;23.20;65.30;;;;;;4999780;28;20038;-79
2023/06/26 09:35:22;;;;;;;0.50;0.50;;;23.20;65.50;;;;;;5003415;28;20517;-79
2023/06/26 09:37:48;;;;;;;6.38;0.55;;;23.20;65.40;;;;;;5002427;28;20403;-78
2023/06/26 09:40:14;;;;;;;0.73;0.70;;;23.20;65.30;;;;;;4985585;28;20050;-79
2023/06/26 09:42:40;;;;;;;1.02;0.70;;;23.20;66.10;;;;;;5001904;28;20528;-79
2023/06/26 09:45:06;;;;;;;1.17;0.70;;;23.20;65.30;;;;;;5003854;28;20156;-80
2023/06/26 09:47:32;;;;;;;0.77;0.52;;;23.20;65.50;;;;;;4999596;28;20412;-79
2023/06/26 09:49:58;;;;;;;1.08;0.70;;;23.20;65.30;;;;;;4998688;28;20057;-79
2023/06/26 09:52:26;;;;;;;0.85;0.55;;;23.30;65.60;;;;;;5000025;28;20046;-79
2023/06/26 09:54:51;;;;;;;0.60;0.50;;;23.30;65.20;;;;;;5001470;28;25152;-79
2023/06/26 09:57:18;;;;;;;0.73;0.40;;;23.30;65.30;;;;;;5004538;28;20515;-80
2023/06/26 09:59:46;;;;;;;0.77;0.60;;;23.30;65.30;;;;;;4304860;28;10000631;-78
2023/06/26 10:02:12;;;;;;;0.82;0.40;;;23.30;65.90;;;;;;4999256;28;20284;-79
2023/06/26 10:04:43;;;;;;;0.70;0.50;;;23.30;65.40;;;;;;4999188;28;20115;-79
2023/06/26 10:07:11;;;;;;;0.60;0.50;;;23.40;65.70;;;;;;4999383;28;20052;-79
2023/06/26 10:09:41;;;;;;;1.52;0.40;;;23.40;65.40;;;;;;5002701;28;20475;-80
2023/06/26 10:12:08;;;;;;;0.90;0.70;;;23.40;65.30;;;;;;4999338;28;20504;-83
2023/06/26 10:14:35;;;;;;;1.63;0.57;;;23.40;65.70;;;;;;5001480;28;20042;-80
2023/06/26 10:17:03;;;;;;;0.85;0.50;;;23.40;65.50;;;;;;5001867;28;20041;-81
2023/06/26 10:19:29;;;;;;;0.75;0.60;;;23.40;65.90;;;;;;4982822;28;20053;-80
2023/06/26 10:21:55;;;;;;;3.58;0.90;;;23.50;66.50;;;;;;5009753;28;20054;-80
2023/06/26 10:24:24;;;;;;;2.10;1.30;;;23.50;69.20;;;;;;4999950;28;20061;-80
2023/06/26 10:27:02;;;;;;;3.25;1.25;;;23.50;69.70;;;;;;4998983;28;20095;-83
2023/06/26 10:29:28;;;;;;;3.47;1.15;;;23.50;69.00;;;;;;5001044;28;20218;-80
2023/06/26 10:31:56;;;;;;;2.60;1.48;;;23.60;70.30;;;;;;4998989;28;20053;-80
2023/06/26 10:34:21;;;;;;;1.40;1.17;;;23.60;71.50;;;;;;5015251;28;20429;-79
2023/06/26 10:36:48;;;;;;;1.83;1.27;;;23.60;73.70;;;;;;5002443;28;20784;-79
2023/06/26 10:39:13;;;;;;;1.27;1.08;;;23.70;73.00;;;;;;5017531;28;20050;-81
2023/06/26 10:41:43;;;;;;;2.97;1.30;;;23.70;72.10;;;;;;5000895;28;20044;-80
2023/06/26 10:44:20;;;;;;;1.48;0.88;;;23.60;69.10;;;;;;5000421;28;20566;-80
2023/06/26 10:46:58;;;;;;;0.90;0.70;;;23.70;68.70;;;;;;4984817;28;20458;-80
2023/06/26 10:49:29;;;;;;;0.73;0.73;;;23.70;68.00;;;;;;4988233;28;20079;-83
2023/06/26 10:51:58;;;;;;;0.80;0.70;;;23.70;67.60;;;;;;4982523;28;20129;-81
2023/06/26 10:54:25;;;;;;;1.52;0.70;;;23.70;66.50;;;;;;5000081;28;20042;-83
2023/06/26 10:56:51;;;;;;;1.48;0.80;;;23.70;66.50;;;;;;4985586;28;20050;-83
2023/06/26 10:59:21;;;;;;;1.25;0.90;;;23.60;62.30;;;;;;4985023;28;20087;-86
2023/06/26 11:01:59;;;;;;;1.52;0.93;;;23.60;64.30;;;;;;5001995;28;20045;-82
2023/06/26 11:04:45;;;;;;;1.25;0.80;;;23.60;59.10;;;;;;5012034;28;20462;-83
2023/06/26 11:07:21;;;;;;;1.38;0.90;;;23.60;60.90;;;;;;5015181;28;20160;-81
2023/06/26 11:09:57;;;;;;;1.23;0.70;;;23.60;62.10;;;;;;5001336;28;20049;-82
2023/06/26 11:12:42;;;;;;;0.50;0.50;;;23.70;62.60;;;;;;5000755;28;20595;-82
2023/06/26 11:15:17;;;;;;;1.33;0.60;;;23.80;61.50;;;;;;5000546;28;20133;-82
2023/06/26 11:17:43;;;;;;;1.52;0.95;;;23.70;62.30;;;;;;5003147;28;20127;-81
2023/06/26 11:20:10;;;;;;;0.82;0.50;;;23.80;60.00;;;;;;5000664;28;20053;-79
2023/06/26 11:22:36;;;;;;;1.40;0.60;;;23.80;60.30;;;;;;4997087;28;20061;-82
2023/06/26 11:25:03;;;;;;;0.82;0.50;;;23.70;60.80;;;;;;5014921;28;20508;-81
2023/06/26 11:27:38;;;;;;;0.85;0.63;;;23.70;60.50;;;;;;5003539;28;20052;-81
2023/06/26 11:30:08;;;;;;;0.80;0.80;;;23.80;61.00;;;;;;5002640;28;20041;-80
2023/06/26 11:32:34;;;;;;;1.13;0.60;;;23.80;61.30;;;;;;4998345;28;20046;-80
2023/06/26 11:34:59;;;;;;;2.38;0.63;;;23.80;61.00;;;;;;4991669;28;20097;-80
2023/06/26 11:37:25;;;;;;;0.82;0.55;;;23.90;61.90;;;;;;5001742;28;20087;-82
2023/06/26 11:39:51;;;;;;;1.35;0.85;;;23.90;61.00;;;;;;4981438;28;20054;-81
2023/06/26 11:42:20;;;;;;;1.23;0.70;;;23.90;60.70;;;;;;4984967;28;20427;-82
2023/06/26 11:44:45;;;;;;;1.17;0.70;;;23.90;60.30;;;;;;5000539;28;20042;-81
2023/06/26 11:47:19;;;;;;;1.38;0.77;;;23.90;60.40;;;;;;4982394;28;20423;-81
2023/06/26 11:49:45;;;;;;;2.25;0.60;;;23.90;56.80;;;;;;4986624;28;20038;-82
2023/06/26 11:52:10;;;;;;;0.55;0.50;;;23.90;58.50;;;;;;4997753;28;20050;-82
2023/06/26 11:54:36;;;;;;;1.02;0.60;;;23.90;59.70;;;;;;5000130;28;20500;-82
2023/06/26 11:57:01;;;;;;;2.35;0.90;;;23.90;59.60;;;;;;4999930;28;20087;-82
2023/06/26 11:59:37;;;;;;;1.35;0.65;;;23.90;59.40;;;;;;4998774;28;20092;-82
2023/06/26 12:02:07;;;;;;;1.33;0.65;;;23.90;59.40;;;;;;4995623;28;20045;-81
2023/06/26 12:04:33;;;;;;;1.63;0.73;;;23.90;59.30;;;;;;5000020;28;20591;-82
2023/06/26 12:06:59;;;;;;;0.88;0.60;;;23.90;59.30;;;;;;4995302;28;20127;-83
2023/06/26 12:09:25;;;;;;;1.75;0.70;;;23.90;59.40;;;;;;4997102;28;20042;-84
2023/06/26 12:11:54;;;;;;;1.17;0.70;;;23.90;59.50;;;;;;4994164;28;20481;-86
2023/06/26 12:14:20;;;;;;;1.88;0.85;;;24.00;59.40;;;;;;4992226;28;20045;-85
2023/06/26 12:16:46;;;;;;;3.10;0.70;;;24.00;59.40;;;;;;4993559;28;20076;-89
2023/06/26 12:19:12;;;;;;;0.85;0.50;;;24.00;59.50;;;;;;4994922;28;20046;-85
2023/06/26 12:21:38;;;;;;;4.25;0.70;;;24.00;59.30;;;;;;5000521;28;20092;-83
2023/06/26 12:24:04;;;;;;;1.20;0.68;;;24.00;59.30;;;;;;4996028;28;20045;-84
2023/06/26 12:26:30;;;;;;;3.97;1.00;;;24.00;59.40;;;;;;4997098;28;20054;-91
2023/06/26 12:29:06;;;;;;;1.30;0.80;;;24.00;59.00;;;;;;4995937;28;20088;-86
2023/06/26 12:31:31;;;;;;;1.00;0.75;;;24.00;59.00;;;;;;4998859;28;20276;-82
2023/06/26 12:33:57;;;;;;;2.03;1.08;;;24.00;58.80;;;;;;4988447;28;20570;-82
2023/06/26 12:36:22;;;;;;;1.35;0.80;;;24.00;58.50;;;;;;4990242;28;20491;-82
2023/06/26 12:38:48;;;;;;;1.25;0.82;;;24.00;58.60;;;;;;4979940;28;20088;-81
2023/06/26 12:41:14;;;;;;;0.93;0.60;;;24.00;57.50;;;;;;4983674;28;20042;-82
2023/06/26 12:43:40;;;;;;;0.82;0.65;;;24.00;58.40;;;;;;4983324;28;20034;-82